sensor_id;sensor_type;location;lat;lon;timestamp;P1;durP1;ratioP1;P2;durP2;ratioP2
12871;SDS011;6504;53.766;9.626;2023-03-20T00:02:02;37.63;;;20.13;;
12871;SDS011;6504;53.766;9.626;2023-03-20T00:04:30;32.27;;;17.97;;
12871;SDS011;6504;53.766;9.626;2023-03-20T00:06:59;29.47;;;16.53;;
12871;SDS011;6504;53.766;9.626;2023-03-20T00:09:28;27.83;;;17.43;;
12871;SDS011;6504;53.766;9.626;2023-03-20T00:11:56;27.00;;;17.27;;
12871;SDS011;6504;53.766;9.626;2023-03-20T00:14:25;27.60;;;17.43;;
12871;SDS011;6504;53.766;9.626;2023-03-20T00:16:53;24.73;;;16.97;;
12871;SDS011;6504;53.766;9.626;2023-03-20T00:19:22;24.13;;;15.70;;
12871;SDS011;6504;53.766;9.626;2023-03-20T00:21:53;25.20;;;15.77;;
12871;SDS011;6504;53.766;9.626;2023-03-20T00:24:22;24.10;;;15.40;;
12871;SDS011;6504;53.766;9.626;2023-03-20T00:26:52;25.07;;;16.27;;
12871;SDS011;6504;53.766;9.626;2023-03-20T00:29:21;23.13;;;16.97;;
12871;SDS011;6504;53.766;9.626;2023-03-20T00:31:52;27.57;;;17.37;;
12871;SDS011;6504;53.766;9.626;2023-03-20T00:34:21;26.00;;;16.73;;
12871;SDS011;6504;53.766;9.626;2023-03-20T00:36:51;23.77;;;16.33;;
12871;SDS011;6504;53.766;9.626;2023-03-20T00:39:19;24.17;;;15.13;;
12871;SDS011;6504;53.766;9.626;2023-03-20T00:41:49;21.83;;;14.67;;
12871;SDS011;6504;53.766;9.626;2023-03-20T00:44:22;20.33;;;14.10;;
12871;SDS011;6504;53.766;9.626;2023-03-20T00:46:53;17.10;;;12.17;;
12871;SDS011;6504;53.766;9.626;2023-03-20T00:49:24;15.33;;;11.33;;
12871;SDS011;6504;53.766;9.626;2023-03-20T00:51:54;14.10;;;10.17;;
12871;SDS011;6504;53.766;9.626;2023-03-20T00:54:23;16.23;;;9.87;;
12871;SDS011;6504;53.766;9.626;2023-03-20T00:56:53;14.50;;;10.60;;
12871;SDS011;6504;53.766;9.626;2023-03-20T00:59:26;13.57;;;9.47;;
12871;SDS011;6504;53.766;9.626;2023-03-20T01:01:58;14.67;;;9.90;;
12871;SDS011;6504;53.766;9.626;2023-03-20T01:04:30;15.13;;;10.27;;
12871;SDS011;6504;53.766;9.626;2023-03-20T01:07:02;13.20;;;10.00;;
12871;SDS011;6504;53.766;9.626;2023-03-20T01:09:30;14.03;;;10.77;;
12871;SDS011;6504;53.766;9.626;2023-03-20T01:11:58;14.80;;;10.40;;
12871;SDS011;6504;53.766;9.626;2023-03-20T01:14:28;14.40;;;10.20;;
12871;SDS011;6504;53.766;9.626;2023-03-20T01:16:57;12.87;;;10.03;;
12871;SDS011;6504;53.766;9.626;2023-03-20T01:19:25;12.67;;;10.20;;
12871;SDS011;6504;53.766;9.626;2023-03-20T01:21:53;14.53;;;10.20;;
12871;SDS011;6504;53.766;9.626;2023-03-20T01:24:21;13.13;;;9.67;;
12871;SDS011;6504;53.766;9.626;2023-03-20T01:26:50;12.97;;;10.80;;
12871;SDS011;6504;53.766;9.626;2023-03-20T01:29:21;12.83;;;10.10;;
12871;SDS011;6504;53.766;9.626;2023-03-20T01:31:51;16.00;;;11.80;;
12871;SDS011;6504;53.766;9.626;2023-03-20T01:34:20;13.20;;;10.33;;
12871;SDS011;6504;53.766;9.626;2023-03-20T01:36:49;14.47;;;10.57;;
12871;SDS011;6504;53.766;9.626;2023-03-20T01:39:19;13.50;;;9.73;;
12871;SDS011;6504;53.766;9.626;2023-03-20T01:41:49;11.57;;;9.47;;
12871;SDS011;6504;53.766;9.626;2023-03-20T01:44:20;10.47;;;8.93;;
12871;SDS011;6504;53.766;9.626;2023-03-20T01:46:51;11.50;;;9.30;;
12871;SDS011;6504;53.766;9.626;2023-03-20T01:52:22;10.70;;;8.80;;
12871;SDS011;6504;53.766;9.626;2023-03-20T01:54:50;11.20;;;9.37;;
12871;SDS011;6504;53.766;9.626;2023-03-20T01:57:19;12.23;;;10.40;;
12871;SDS011;6504;53.766;9.626;2023-03-20T01:59:51;14.13;;;11.20;;
12871;SDS011;6504;53.766;9.626;2023-03-20T02:02:25;14.17;;;11.43;;
12871;SDS011;6504;53.766;9.626;2023-03-20T02:04:57;13.17;;;11.57;;
12871;SDS011;6504;53.766;9.626;2023-03-20T02:07:29;15.43;;;11.93;;
12871;SDS011;6504;53.766;9.626;2023-03-20T02:09:59;14.20;;;12.70;;
12871;SDS011;6504;53.766;9.626;2023-03-20T02:12:28;15.13;;;12.77;;
12871;SDS011;6504;53.766;9.626;2023-03-20T02:14:57;12.17;;;10.87;;
12871;SDS011;6504;53.766;9.626;2023-03-20T02:17:26;12.30;;;9.93;;
12871;SDS011;6504;53.766;9.626;2023-03-20T02:19:57;12.73;;;10.87;;
12871;SDS011;6504;53.766;9.626;2023-03-20T02:22:40;11.33;;;9.43;;
12871;SDS011;6504;53.766;9.626;2023-03-20T02:25:41;10.33;;;8.20;;
12871;SDS011;6504;53.766;9.626;2023-03-20T02:28:49;10.80;;;8.67;;
12871;SDS011;6504;53.766;9.626;2023-03-20T02:31:59;10.07;;;7.83;;
12871;SDS011;6504;53.766;9.626;2023-03-20T02:37:59;8.27;;;6.73;;
12871;SDS011;6504;53.766;9.626;2023-03-20T02:40:38;7.43;;;5.30;;
12871;SDS011;6504;53.766;9.626;2023-03-20T02:43:15;7.57;;;5.90;;
12871;SDS011;6504;53.766;9.626;2023-03-20T02:45:48;6.80;;;5.37;;
12871;SDS011;6504;53.766;9.626;2023-03-20T02:48:25;4.63;;;4.17;;
12871;SDS011;6504;53.766;9.626;2023-03-20T02:51:00;5.20;;;4.23;;
12871;SDS011;6504;53.766;9.626;2023-03-20T02:53:34;5.53;;;4.43;;
12871;SDS011;6504;53.766;9.626;2023-03-20T02:56:14;4.87;;;4.33;;
12871;SDS011;6504;53.766;9.626;2023-03-20T02:58:48;4.60;;;4.20;;
12871;SDS011;6504;53.766;9.626;2023-03-20T03:01:23;5.27;;;4.50;;
12871;SDS011;6504;53.766;9.626;2023-03-20T03:03:57;4.77;;;4.23;;
12871;SDS011;6504;53.766;9.626;2023-03-20T03:06:31;5.80;;;5.03;;
12871;SDS011;6504;53.766;9.626;2023-03-20T03:09:04;4.63;;;3.80;;
12871;SDS011;6504;53.766;9.626;2023-03-20T03:11:42;5.17;;;4.37;;
12871;SDS011;6504;53.766;9.626;2023-03-20T03:14:16;4.97;;;4.40;;
12871;SDS011;6504;53.766;9.626;2023-03-20T03:16:50;6.10;;;5.07;;
12871;SDS011;6504;53.766;9.626;2023-03-20T03:19:21;5.83;;;4.93;;
12871;SDS011;6504;53.766;9.626;2023-03-20T03:21:53;5.83;;;5.23;;
12871;SDS011;6504;53.766;9.626;2023-03-20T03:24:27;5.87;;;4.77;;
12871;SDS011;6504;53.766;9.626;2023-03-20T03:27:09;6.43;;;5.27;;
12871;SDS011;6504;53.766;9.626;2023-03-20T03:29:43;7.03;;;5.77;;
12871;SDS011;6504;53.766;9.626;2023-03-20T03:32:27;5.60;;;5.10;;
12871;SDS011;6504;53.766;9.626;2023-03-20T03:34:58;6.47;;;5.60;;
12871;SDS011;6504;53.766;9.626;2023-03-20T03:37:30;5.90;;;5.30;;
12871;SDS011;6504;53.766;9.626;2023-03-20T03:40:13;6.37;;;5.57;;
12871;SDS011;6504;53.766;9.626;2023-03-20T03:42:48;6.07;;;4.53;;
12871;SDS011;6504;53.766;9.626;2023-03-20T03:45:26;5.70;;;4.57;;
12871;SDS011;6504;53.766;9.626;2023-03-20T03:48:00;5.73;;;4.57;;
12871;SDS011;6504;53.766;9.626;2023-03-20T03:50:32;4.03;;;3.63;;
12871;SDS011;6504;53.766;9.626;2023-03-20T03:53:05;4.60;;;3.60;;
12871;SDS011;6504;53.766;9.626;2023-03-20T03:55:41;4.53;;;3.67;;
12871;SDS011;6504;53.766;9.626;2023-03-20T03:58:14;4.50;;;3.77;;
12871;SDS011;6504;53.766;9.626;2023-03-20T04:00:47;3.87;;;3.37;;
12871;SDS011;6504;53.766;9.626;2023-03-20T04:03:19;3.63;;;3.07;;
12871;SDS011;6504;53.766;9.626;2023-03-20T04:05:49;3.40;;;3.10;;
12871;SDS011;6504;53.766;9.626;2023-03-20T04:08:20;4.73;;;3.43;;
12871;SDS011;6504;53.766;9.626;2023-03-20T04:10:50;3.67;;;3.27;;
12871;SDS011;6504;53.766;9.626;2023-03-20T04:13:18;4.00;;;3.60;;
12871;SDS011;6504;53.766;9.626;2023-03-20T04:15:46;3.63;;;3.30;;
12871;SDS011;6504;53.766;9.626;2023-03-20T04:18:14;3.90;;;3.40;;
12871;SDS011;6504;53.766;9.626;2023-03-20T04:20:45;3.87;;;3.47;;
12871;SDS011;6504;53.766;9.626;2023-03-20T04:23:13;3.90;;;3.33;;
12871;SDS011;6504;53.766;9.626;2023-03-20T04:25:42;4.63;;;3.33;;
12871;SDS011;6504;53.766;9.626;2023-03-20T04:28:11;4.33;;;3.93;;
12871;SDS011;6504;53.766;9.626;2023-03-20T04:30:41;4.60;;;4.03;;
12871;SDS011;6504;53.766;9.626;2023-03-20T04:33:13;5.87;;;4.20;;
12871;SDS011;6504;53.766;9.626;2023-03-20T04:35:41;4.37;;;3.80;;
12871;SDS011;6504;53.766;9.626;2023-03-20T04:38:09;5.00;;;4.10;;
12871;SDS011;6504;53.766;9.626;2023-03-20T04:40:37;4.50;;;4.10;;
12871;SDS011;6504;53.766;9.626;2023-03-20T04:43:05;5.60;;;4.23;;
12871;SDS011;6504;53.766;9.626;2023-03-20T04:45:35;5.30;;;4.60;;
12871;SDS011;6504;53.766;9.626;2023-03-20T04:48:04;5.27;;;4.50;;
12871;SDS011;6504;53.766;9.626;2023-03-20T04:50:32;5.23;;;4.40;;
12871;SDS011;6504;53.766;9.626;2023-03-20T04:53:00;5.80;;;4.53;;
12871;SDS011;6504;53.766;9.626;2023-03-20T04:55:28;5.00;;;4.40;;
12871;SDS011;6504;53.766;9.626;2023-03-20T04:57:56;4.90;;;4.30;;
12871;SDS011;6504;53.766;9.626;2023-03-20T05:00:24;5.23;;;4.73;;
12871;SDS011;6504;53.766;9.626;2023-03-20T05:02:54;5.53;;;4.93;;
12871;SDS011;6504;53.766;9.626;2023-03-20T05:05:22;5.67;;;5.10;;
12871;SDS011;6504;53.766;9.626;2023-03-20T05:07:51;5.17;;;4.67;;
12871;SDS011;6504;53.766;9.626;2023-03-20T05:10:19;5.33;;;4.83;;
12871;SDS011;6504;53.766;9.626;2023-03-20T05:12:49;5.43;;;4.93;;
12871;SDS011;6504;53.766;9.626;2023-03-20T05:15:17;6.47;;;5.20;;
12871;SDS011;6504;53.766;9.626;2023-03-20T05:17:45;6.03;;;5.17;;
12871;SDS011;6504;53.766;9.626;2023-03-20T05:20:18;7.70;;;5.20;;
12871;SDS011;6504;53.766;9.626;2023-03-20T05:22:47;5.97;;;5.37;;
12871;SDS011;6504;53.766;9.626;2023-03-20T05:25:16;7.17;;;6.00;;
12871;SDS011;6504;53.766;9.626;2023-03-20T05:27:44;7.33;;;6.07;;
12871;SDS011;6504;53.766;9.626;2023-03-20T05:30:13;5.93;;;5.33;;
12871;SDS011;6504;53.766;9.626;2023-03-20T05:32:41;6.73;;;5.40;;
12871;SDS011;6504;53.766;9.626;2023-03-20T05:35:10;6.73;;;6.03;;
12871;SDS011;6504;53.766;9.626;2023-03-20T05:37:39;6.10;;;5.50;;
12871;SDS011;6504;53.766;9.626;2023-03-20T05:40:08;6.90;;;6.00;;
12871;SDS011;6504;53.766;9.626;2023-03-20T05:42:39;7.10;;;6.13;;
12871;SDS011;6504;53.766;9.626;2023-03-20T05:45:07;6.93;;;5.83;;
12871;SDS011;6504;53.766;9.626;2023-03-20T05:47:36;7.20;;;6.10;;
12871;SDS011;6504;53.766;9.626;2023-03-20T05:50:04;8.63;;;6.53;;
12871;SDS011;6504;53.766;9.626;2023-03-20T05:52:33;7.93;;;6.53;;
12871;SDS011;6504;53.766;9.626;2023-03-20T05:55:03;6.87;;;6.17;;
12871;SDS011;6504;53.766;9.626;2023-03-20T05:57:31;7.50;;;6.70;;
12871;SDS011;6504;53.766;9.626;2023-03-20T05:59:59;8.10;;;6.73;;
12871;SDS011;6504;53.766;9.626;2023-03-20T06:02:27;7.07;;;6.30;;
12871;SDS011;6504;53.766;9.626;2023-03-20T06:04:55;7.43;;;6.63;;
12871;SDS011;6504;53.766;9.626;2023-03-20T06:07:23;8.77;;;6.83;;
12871;SDS011;6504;53.766;9.626;2023-03-20T06:09:51;8.57;;;7.10;;
12871;SDS011;6504;53.766;9.626;2023-03-20T06:12:21;8.23;;;7.23;;
12871;SDS011;6504;53.766;9.626;2023-03-20T06:14:49;8.85;;;7.60;;
12871;SDS011;6504;53.766;9.626;2023-03-20T06:17:17;8.13;;;7.23;;
12871;SDS011;6504;53.766;9.626;2023-03-20T06:19:45;8.50;;;7.60;;
12871;SDS011;6504;53.766;9.626;2023-03-20T06:22:13;7.97;;;7.17;;
12871;SDS011;6504;53.766;9.626;2023-03-20T06:24:41;8.30;;;7.50;;
12871;SDS011;6504;53.766;9.626;2023-03-20T06:27:09;9.57;;;7.90;;
12871;SDS011;6504;53.766;9.626;2023-03-20T06:29:39;8.40;;;7.50;;
12871;SDS011;6504;53.766;9.626;2023-03-20T06:32:08;9.90;;;7.93;;
12871;SDS011;6504;53.766;9.626;2023-03-20T06:34:37;8.93;;;7.83;;
12871;SDS011;6504;53.766;9.626;2023-03-20T06:37:06;9.53;;;7.53;;
12871;SDS011;6504;53.766;9.626;2023-03-20T06:39:34;10.53;;;7.80;;
12871;SDS011;6504;53.766;9.626;2023-03-20T06:42:03;9.50;;;7.70;;
12871;SDS011;6504;53.766;9.626;2023-03-20T06:44:31;9.77;;;7.90;;
12871;SDS011;6504;53.766;9.626;2023-03-20T06:47:01;10.03;;;8.07;;
12871;SDS011;6504;53.766;9.626;2023-03-20T06:49:29;9.53;;;7.87;;
12871;SDS011;6504;53.766;9.626;2023-03-20T06:51:57;10.03;;;8.60;;
12871;SDS011;6504;53.766;9.626;2023-03-20T06:54:25;10.57;;;9.00;;
12871;SDS011;6504;53.766;9.626;2023-03-20T06:56:53;11.30;;;8.63;;
12871;SDS011;6504;53.766;9.626;2023-03-20T06:59:21;12.93;;;9.50;;
12871;SDS011;6504;53.766;9.626;2023-03-20T07:01:49;13.37;;;10.70;;
12871;SDS011;6504;53.766;9.626;2023-03-20T07:04:19;12.43;;;9.90;;
12871;SDS011;6504;53.766;9.626;2023-03-20T07:06:47;13.20;;;10.73;;
12871;SDS011;6504;53.766;9.626;2023-03-20T07:11:48;15.07;;;10.90;;
12871;SDS011;6504;53.766;9.626;2023-03-20T07:14:16;15.30;;;11.53;;
12871;SDS011;6504;53.766;9.626;2023-03-20T07:16:44;13.13;;;11.43;;
12871;SDS011;6504;53.766;9.626;2023-03-20T07:19:12;14.47;;;11.97;;
12871;SDS011;6504;53.766;9.626;2023-03-20T07:21:42;16.03;;;11.80;;
12871;SDS011;6504;53.766;9.626;2023-03-20T07:24:10;14.67;;;11.73;;
12871;SDS011;6504;53.766;9.626;2023-03-20T07:26:38;13.77;;;11.57;;
12871;SDS011;6504;53.766;9.626;2023-03-20T07:29:07;13.70;;;11.83;;
12871;SDS011;6504;53.766;9.626;2023-03-20T07:31:35;16.00;;;11.90;;
12871;SDS011;6504;53.766;9.626;2023-03-20T07:34:03;13.57;;;11.03;;
12871;SDS011;6504;53.766;9.626;2023-03-20T07:36:31;17.77;;;11.37;;
12871;SDS011;6504;53.766;9.626;2023-03-20T07:39:01;15.53;;;12.00;;
12871;SDS011;6504;53.766;9.626;2023-03-20T07:41:29;13.30;;;11.03;;
12871;SDS011;6504;53.766;9.626;2023-03-20T07:43:57;12.80;;;10.00;;
12871;SDS011;6504;53.766;9.626;2023-03-20T07:46:25;11.53;;;10.33;;
12871;SDS011;6504;53.766;9.626;2023-03-20T07:48:53;10.60;;;9.37;;
12871;SDS011;6504;53.766;9.626;2023-03-20T07:51:23;12.90;;;10.13;;
12871;SDS011;6504;53.766;9.626;2023-03-20T07:53:51;13.43;;;10.30;;
12871;SDS011;6504;53.766;9.626;2023-03-20T07:56:21;12.70;;;9.67;;
12871;SDS011;6504;53.766;9.626;2023-03-20T07:58:49;10.17;;;8.50;;
12871;SDS011;6504;53.766;9.626;2023-03-20T08:01:17;12.13;;;9.67;;
12871;SDS011;6504;53.766;9.626;2023-03-20T08:03:45;10.50;;;9.10;;
12871;SDS011;6504;53.766;9.626;2023-03-20T08:06:13;9.10;;;7.77;;
12871;SDS011;6504;53.766;9.626;2023-03-20T08:08:42;10.87;;;9.67;;
12871;SDS011;6504;53.766;9.626;2023-03-20T08:11:11;9.27;;;7.80;;
12871;SDS011;6504;53.766;9.626;2023-03-20T08:13:41;10.33;;;8.63;;
12871;SDS011;6504;53.766;9.626;2023-03-20T08:16:09;8.97;;;7.97;;
12871;SDS011;6504;53.766;9.626;2023-03-20T08:18:37;11.47;;;8.77;;
12871;SDS011;6504;53.766;9.626;2023-03-20T08:21:05;10.37;;;8.10;;
12871;SDS011;6504;53.766;9.626;2023-03-20T08:23:33;11.27;;;8.63;;
12871;SDS011;6504;53.766;9.626;2023-03-20T08:26:01;9.20;;;8.07;;
12871;SDS011;6504;53.766;9.626;2023-03-20T08:28:30;10.17;;;8.30;;
12871;SDS011;6504;53.766;9.626;2023-03-20T08:31:14;10.07;;;7.60;;
12871;SDS011;6504;53.766;9.626;2023-03-20T08:33:43;11.00;;;8.50;;
12871;SDS011;6504;53.766;9.626;2023-03-20T08:36:11;10.10;;;8.27;;
12871;SDS011;6504;53.766;9.626;2023-03-20T08:38:41;9.50;;;8.50;;
12871;SDS011;6504;53.766;9.626;2023-03-20T08:41:09;10.00;;;8.23;;
12871;SDS011;6504;53.766;9.626;2023-03-20T08:43:37;9.20;;;8.30;;
12871;SDS011;6504;53.766;9.626;2023-03-20T08:46:05;10.37;;;8.10;;
12871;SDS011;6504;53.766;9.626;2023-03-20T08:48:35;9.47;;;8.40;;
12871;SDS011;6504;53.766;9.626;2023-03-20T08:51:04;11.70;;;8.70;;
12871;SDS011;6504;53.766;9.626;2023-03-20T08:53:32;10.27;;;7.83;;
12871;SDS011;6504;53.766;9.626;2023-03-20T08:56:00;9.47;;;8.33;;
12871;SDS011;6504;53.766;9.626;2023-03-20T08:58:29;12.30;;;8.93;;
12871;SDS011;6504;53.766;9.626;2023-03-20T09:01:01;10.07;;;8.70;;
12871;SDS011;6504;53.766;9.626;2023-03-20T09:03:30;11.23;;;8.40;;
12871;SDS011;6504;53.766;9.626;2023-03-20T09:06:00;10.10;;;8.73;;
12871;SDS011;6504;53.766;9.626;2023-03-20T09:08:28;10.63;;;8.60;;
12871;SDS011;6504;53.766;9.626;2023-03-20T09:10:57;10.77;;;8.60;;
12871;SDS011;6504;53.766;9.626;2023-03-20T09:13:25;9.77;;;8.77;;
12871;SDS011;6504;53.766;9.626;2023-03-20T09:15:54;10.30;;;8.03;;
12871;SDS011;6504;53.766;9.626;2023-03-20T09:18:24;12.10;;;8.20;;
12871;SDS011;6504;53.766;9.626;2023-03-20T09:20:52;11.47;;;8.37;;
12871;SDS011;6504;53.766;9.626;2023-03-20T09:23:23;11.40;;;7.93;;
12871;SDS011;6504;53.766;9.626;2023-03-20T09:25:51;11.43;;;8.80;;
12871;SDS011;6504;53.766;9.626;2023-03-20T09:28:19;14.17;;;9.17;;
12871;SDS011;6504;53.766;9.626;2023-03-20T09:30:47;12.20;;;9.03;;
12871;SDS011;6504;53.766;9.626;2023-03-20T09:33:15;12.17;;;9.00;;
12871;SDS011;6504;53.766;9.626;2023-03-20T09:35:44;12.10;;;9.57;;
12871;SDS011;6504;53.766;9.626;2023-03-20T09:38:12;13.67;;;9.73;;
12871;SDS011;6504;53.766;9.626;2023-03-20T09:40:47;16.83;;;9.90;;
12871;SDS011;6504;53.766;9.626;2023-03-20T09:43:20;14.77;;;10.27;;
12871;SDS011;6504;53.766;9.626;2023-03-20T09:45:57;15.23;;;10.27;;
12871;SDS011;6504;53.766;9.626;2023-03-20T09:48:33;13.87;;;9.67;;
12871;SDS011;6504;53.766;9.626;2023-03-20T09:51:09;14.00;;;10.43;;
12871;SDS011;6504;53.766;9.626;2023-03-20T09:53:44;14.87;;;10.70;;
12871;SDS011;6504;53.766;9.626;2023-03-20T09:56:18;13.97;;;10.57;;
12871;SDS011;6504;53.766;9.626;2023-03-20T09:58:51;16.07;;;11.00;;
12871;SDS011;6504;53.766;9.626;2023-03-20T10:01:22;14.50;;;10.63;;
12871;SDS011;6504;53.766;9.626;2023-03-20T10:03:54;15.30;;;10.10;;
12871;SDS011;6504;53.766;9.626;2023-03-20T10:06:25;13.47;;;10.33;;
12871;SDS011;6504;53.766;9.626;2023-03-20T10:08:53;13.83;;;10.53;;
12871;SDS011;6504;53.766;9.626;2023-03-20T10:11:27;14.70;;;10.93;;
12871;SDS011;6504;53.766;9.626;2023-03-20T10:14:06;15.90;;;10.60;;
12871;SDS011;6504;53.766;9.626;2023-03-20T10:16:54;15.90;;;10.80;;
12871;SDS011;6504;53.766;9.626;2023-03-20T10:19:35;15.17;;;10.27;;
12871;SDS011;6504;53.766;9.626;2023-03-20T10:22:11;12.57;;;10.30;;
12871;SDS011;6504;53.766;9.626;2023-03-20T10:24:45;16.23;;;11.40;;
12871;SDS011;6504;53.766;9.626;2023-03-20T10:27:21;15.17;;;11.00;;
12871;SDS011;6504;53.766;9.626;2023-03-20T10:29:58;16.40;;;11.20;;
12871;SDS011;6504;53.766;9.626;2023-03-20T10:32:40;14.97;;;10.40;;
12871;SDS011;6504;53.766;9.626;2023-03-20T10:35:16;12.27;;;10.30;;
12871;SDS011;6504;53.766;9.626;2023-03-20T10:37:58;14.27;;;11.20;;
12871;SDS011;6504;53.766;9.626;2023-03-20T10:40:36;13.37;;;10.57;;
12871;SDS011;6504;53.766;9.626;2023-03-20T10:43:10;16.77;;;11.63;;
12871;SDS011;6504;53.766;9.626;2023-03-20T10:45:44;13.93;;;10.97;;
12871;SDS011;6504;53.766;9.626;2023-03-20T10:48:19;14.07;;;10.87;;
12871;SDS011;6504;53.766;9.626;2023-03-20T10:50:52;12.43;;;10.50;;
12871;SDS011;6504;53.766;9.626;2023-03-20T10:53:24;15.77;;;11.03;;
12871;SDS011;6504;53.766;9.626;2023-03-20T10:55:58;15.37;;;10.70;;
12871;SDS011;6504;53.766;9.626;2023-03-20T10:58:30;13.80;;;11.13;;
12871;SDS011;6504;53.766;9.626;2023-03-20T11:01:01;15.30;;;11.03;;
12871;SDS011;6504;53.766;9.626;2023-03-20T11:03:30;15.43;;;11.20;;
12871;SDS011;6504;53.766;9.626;2023-03-20T11:06:00;15.30;;;10.90;;
12871;SDS011;6504;53.766;9.626;2023-03-20T11:08:36;13.33;;;11.40;;
12871;SDS011;6504;53.766;9.626;2023-03-20T11:11:06;13.23;;;10.53;;
12871;SDS011;6504;53.766;9.626;2023-03-20T11:13:37;15.73;;;9.93;;
12871;SDS011;6504;53.766;9.626;2023-03-20T11:16:08;11.43;;;10.00;;
12871;SDS011;6504;53.766;9.626;2023-03-20T11:18:43;16.93;;;10.23;;
12871;SDS011;6504;53.766;9.626;2023-03-20T11:21:15;15.47;;;10.97;;
12871;SDS011;6504;53.766;9.626;2023-03-20T11:23:46;14.37;;;10.07;;
12871;SDS011;6504;53.766;9.626;2023-03-20T11:26:16;13.87;;;10.30;;
12871;SDS011;6504;53.766;9.626;2023-03-20T11:28:48;12.53;;;10.47;;
12871;SDS011;6504;53.766;9.626;2023-03-20T11:31:19;14.50;;;9.90;;
12871;SDS011;6504;53.766;9.626;2023-03-20T11:33:52;12.70;;;9.60;;
12871;SDS011;6504;53.766;9.626;2023-03-20T11:36:35;13.37;;;9.47;;
12871;SDS011;6504;53.766;9.626;2023-03-20T11:39:13;13.13;;;10.30;;
12871;SDS011;6504;53.766;9.626;2023-03-20T11:41:45;11.83;;;9.47;;
12871;SDS011;6504;53.766;9.626;2023-03-20T11:44:21;13.63;;;9.87;;
12871;SDS011;6504;53.766;9.626;2023-03-20T11:46:54;14.10;;;10.00;;
12871;SDS011;6504;53.766;9.626;2023-03-20T11:49:24;15.23;;;10.13;;
12871;SDS011;6504;53.766;9.626;2023-03-20T11:51:55;13.20;;;10.20;;
12871;SDS011;6504;53.766;9.626;2023-03-20T11:54:27;13.40;;;10.60;;
12871;SDS011;6504;53.766;9.626;2023-03-20T11:56:56;12.13;;;9.60;;
12871;SDS011;6504;53.766;9.626;2023-03-20T11:59:28;13.00;;;9.87;;
12871;SDS011;6504;53.766;9.626;2023-03-20T12:02:00;11.73;;;9.63;;
12871;SDS011;6504;53.766;9.626;2023-03-20T12:04:31;13.43;;;9.20;;
12871;SDS011;6504;53.766;9.626;2023-03-20T12:07:03;12.23;;;9.07;;
12871;SDS011;6504;53.766;9.626;2023-03-20T12:09:39;10.50;;;9.40;;
12871;SDS011;6504;53.766;9.626;2023-03-20T12:12:15;10.70;;;9.60;;
12871;SDS011;6504;53.766;9.626;2023-03-20T12:14:54;11.17;;;9.33;;
12871;SDS011;6504;53.766;9.626;2023-03-20T12:17:43;14.90;;;10.10;;
12871;SDS011;6504;53.766;9.626;2023-03-20T12:20:27;11.00;;;9.37;;
12871;SDS011;6504;53.766;9.626;2023-03-20T12:23:02;12.33;;;9.30;;
12871;SDS011;6504;53.766;9.626;2023-03-20T12:25:39;12.07;;;9.30;;
12871;SDS011;6504;53.766;9.626;2023-03-20T12:28:17;10.20;;;8.97;;
12871;SDS011;6504;53.766;9.626;2023-03-20T12:30:53;13.50;;;9.23;;
12871;SDS011;6504;53.766;9.626;2023-03-20T12:33:30;11.20;;;8.87;;
12871;SDS011;6504;53.766;9.626;2023-03-20T12:36:08;10.13;;;8.67;;
12871;SDS011;6504;53.766;9.626;2023-03-20T12:38:40;10.40;;;9.30;;
12871;SDS011;6504;53.766;9.626;2023-03-20T12:41:13;10.10;;;8.53;;
12871;SDS011;6504;53.766;9.626;2023-03-20T12:43:53;11.67;;;8.73;;
12871;SDS011;6504;53.766;9.626;2023-03-20T12:46:52;12.27;;;8.30;;
12871;SDS011;6504;53.766;9.626;2023-03-20T12:49:32;9.73;;;8.10;;
12871;SDS011;6504;53.766;9.626;2023-03-20T12:52:08;8.90;;;8.00;;
12871;SDS011;6504;53.766;9.626;2023-03-20T12:54:55;12.63;;;9.03;;
12871;SDS011;6504;53.766;9.626;2023-03-20T12:57:31;10.23;;;8.80;;
12871;SDS011;6504;53.766;9.626;2023-03-20T13:00:11;9.30;;;8.23;;
12871;SDS011;6504;53.766;9.626;2023-03-20T13:02:52;10.00;;;8.13;;
12871;SDS011;6504;53.766;9.626;2023-03-20T13:05:35;10.97;;;8.23;;
12871;SDS011;6504;53.766;9.626;2023-03-20T13:08:17;8.77;;;7.87;;
12871;SDS011;6504;53.766;9.626;2023-03-20T13:11:03;10.43;;;7.90;;
12871;SDS011;6504;53.766;9.626;2023-03-20T13:13:39;10.33;;;7.73;;
12871;SDS011;6504;53.766;9.626;2023-03-20T13:16:13;9.50;;;8.30;;
12871;SDS011;6504;53.766;9.626;2023-03-20T13:18:54;10.70;;;7.87;;
12871;SDS011;6504;53.766;9.626;2023-03-20T13:21:28;11.07;;;8.17;;
12871;SDS011;6504;53.766;9.626;2023-03-20T13:24:10;9.50;;;8.60;;
12871;SDS011;6504;53.766;9.626;2023-03-20T13:26:48;9.20;;;8.30;;
12871;SDS011;6504;53.766;9.626;2023-03-20T13:29:24;10.30;;;9.00;;
12871;SDS011;6504;53.766;9.626;2023-03-20T13:32:00;8.73;;;7.80;;
12871;SDS011;6504;53.766;9.626;2023-03-20T13:34:40;9.33;;;8.27;;
12871;SDS011;6504;53.766;9.626;2023-03-20T13:37:20;12.03;;;8.20;;
12871;SDS011;6504;53.766;9.626;2023-03-20T13:39:57;10.30;;;7.83;;
12871;SDS011;6504;53.766;9.626;2023-03-20T13:42:30;8.50;;;6.60;;
12871;SDS011;6504;53.766;9.626;2023-03-20T13:45:03;9.83;;;7.27;;
12871;SDS011;6504;53.766;9.626;2023-03-20T13:47:33;9.27;;;7.37;;
12871;SDS011;6504;53.766;9.626;2023-03-20T13:50:11;9.97;;;7.43;;
12871;SDS011;6504;53.766;9.626;2023-03-20T13:52:51;7.73;;;6.93;;
12871;SDS011;6504;53.766;9.626;2023-03-20T13:55:29;8.73;;;7.20;;
12871;SDS011;6504;53.766;9.626;2023-03-20T13:58:08;7.43;;;6.30;;
12871;SDS011;6504;53.766;9.626;2023-03-20T14:00:50;8.20;;;6.97;;
12871;SDS011;6504;53.766;9.626;2023-03-20T14:03:26;9.50;;;6.73;;
12871;SDS011;6504;53.766;9.626;2023-03-20T14:05:59;8.40;;;7.00;;
12871;SDS011;6504;53.766;9.626;2023-03-20T14:08:31;8.90;;;7.20;;
12871;SDS011;6504;53.766;9.626;2023-03-20T14:14:06;9.77;;;8.03;;
12871;SDS011;6504;53.766;9.626;2023-03-20T14:16:40;9.67;;;7.83;;
12871;SDS011;6504;53.766;9.626;2023-03-20T14:19:15;10.30;;;7.80;;
12871;SDS011;6504;53.766;9.626;2023-03-20T14:21:48;11.70;;;8.80;;
12871;SDS011;6504;53.766;9.626;2023-03-20T14:24:19;11.30;;;10.13;;
12871;SDS011;6504;53.766;9.626;2023-03-20T14:26:49;13.17;;;11.73;;
12871;SDS011;6504;53.766;9.626;2023-03-20T14:29:32;15.33;;;12.10;;
12871;SDS011;6504;53.766;9.626;2023-03-20T14:32:03;10.67;;;9.57;;
12871;SDS011;6504;53.766;9.626;2023-03-20T14:34:48;10.30;;;8.97;;
12871;SDS011;6504;53.766;9.626;2023-03-20T14:37:29;9.83;;;8.40;;
12871;SDS011;6504;53.766;9.626;2023-03-20T14:40:05;12.83;;;10.90;;
12871;SDS011;6504;53.766;9.626;2023-03-20T14:42:46;12.57;;;9.53;;
12871;SDS011;6504;53.766;9.626;2023-03-20T14:45:28;12.57;;;10.17;;
12871;SDS011;6504;53.766;9.626;2023-03-20T14:48:05;14.40;;;10.33;;
12871;SDS011;6504;53.766;9.626;2023-03-20T14:50:48;21.37;;;16.20;;
12871;SDS011;6504;53.766;9.626;2023-03-20T14:53:23;24.30;;;16.80;;
12871;SDS011;6504;53.766;9.626;2023-03-20T14:55:57;14.10;;;11.43;;
12871;SDS011;6504;53.766;9.626;2023-03-20T14:58:42;15.53;;;11.07;;
12871;SDS011;6504;53.766;9.626;2023-03-20T15:01:27;11.60;;;10.40;;
12871;SDS011;6504;53.766;9.626;2023-03-20T15:04:13;15.70;;;11.83;;
12871;SDS011;6504;53.766;9.626;2023-03-20T15:06:52;13.37;;;10.73;;
12871;SDS011;6504;53.766;9.626;2023-03-20T15:09:25;14.80;;;11.47;;
12871;SDS011;6504;53.766;9.626;2023-03-20T15:11:57;15.80;;;12.43;;
12871;SDS011;6504;53.766;9.626;2023-03-20T15:14:32;15.43;;;11.80;;
12871;SDS011;6504;53.766;9.626;2023-03-20T15:17:14;14.97;;;10.97;;
12871;SDS011;6504;53.766;9.626;2023-03-20T15:19:44;13.97;;;10.80;;
12871;SDS011;6504;53.766;9.626;2023-03-20T15:22:17;15.60;;;12.73;;
12871;SDS011;6504;53.766;9.626;2023-03-20T15:24:52;15.90;;;11.57;;
12871;SDS011;6504;53.766;9.626;2023-03-20T15:27:21;15.53;;;11.03;;
12871;SDS011;6504;53.766;9.626;2023-03-20T15:29:55;15.17;;;11.27;;
12871;SDS011;6504;53.766;9.626;2023-03-20T15:32:24;16.73;;;13.30;;